createdAt,value
2023-03-08T00:00:18.585Z,20.2
2023-03-08T00:05:18.863Z,20.2
2023-03-08T00:10:13.708Z,20.2
2023-03-08T00:15:14.460Z,20.1
2023-03-08T00:20:20.511Z,20.1
2023-03-08T00:25:16.237Z,20.1
2023-03-08T00:30:20.244Z,20.1
2023-03-08T00:35:20.143Z,20.1
2023-03-08T00:40:15.948Z,20.1
2023-03-08T00:45:17.785Z,20
2023-03-08T00:50:15.616Z,20
2023-03-08T00:55:14.480Z,20
2023-03-08T01:00:16.349Z,20
2023-03-08T01:05:14.243Z,20
2023-03-08T01:10:22.141Z,20
2023-03-08T01:15:18.073Z,20
2023-03-08T01:20:19.921Z,20
2023-03-08T01:25:13.682Z,19.9
2023-03-08T01:30:15.545Z,19.9
2023-03-08T01:35:16.572Z,19.9
2023-03-08T01:40:20.382Z,19.9
2023-03-08T01:45:16.193Z,19.9
2023-03-08T01:50:19.956Z,19.9
2023-03-08T01:55:15.762Z,19.9
2023-03-08T02:00:13.846Z,19.9
2023-03-08T02:05:15.759Z,19.8
2023-03-08T02:10:15.479Z,19.8
2023-03-08T02:15:16.393Z,19.8
2023-03-08T02:20:16.209Z,19.8
2023-03-08T02:25:20.030Z,19.8
2023-03-08T02:30:13.873Z,19.8
2023-03-08T02:40:20.441Z,19.8
2023-03-08T02:45:22.255Z,19.8
2023-03-08T02:50:18.042Z,19.8
2023-03-08T02:55:13.888Z,19.8
2023-03-08T03:00:13.915Z,19.8
2023-03-08T03:05:17.939Z,19.8
2023-03-08T03:10:25.729Z,19.8
2023-03-08T03:15:14.064Z,19.8
2023-03-08T03:20:18.055Z,19.7
2023-03-08T03:25:17.870Z,19.8
2023-03-08T03:30:17.711Z,19.7
2023-03-08T03:35:14.552Z,19.7
2023-03-08T03:40:14.367Z,19.7
2023-03-08T03:45:22.294Z,19.7
2023-03-08T03:50:20.203Z,19.7
2023-03-08T03:55:19.918Z,19.7
2023-03-08T04:00:17.771Z,19.7
2023-03-08T04:05:17.534Z,19.7
2023-03-08T04:10:16.541Z,19.7
2023-03-08T04:15:18.367Z,19.7
2023-03-08T04:20:22.190Z,19.7
2023-03-08T04:25:17.952Z,19.7
2023-03-08T04:30:15.865Z,19.7
2023-03-08T04:35:17.602Z,19.7
2023-03-08T04:40:14.391Z,19.7
2023-03-08T04:45:22.245Z,19.6
2023-03-08T04:50:13.984Z,19.6
2023-03-08T04:55:19.761Z,19.6
2023-03-08T05:00:19.725Z,19.6
2023-03-08T05:05:16.821Z,19.8
2023-03-08T05:10:15.786Z,19.8
2023-03-08T05:15:15.602Z,19.8
2023-03-08T05:20:14.569Z,19.9
2023-03-08T05:25:18.417Z,19.9
2023-03-08T05:30:14.233Z,20
2023-03-08T05:35:15.936Z,20
2023-03-08T05:40:13.741Z,20
2023-03-08T05:45:14.017Z,20.1
2023-03-08T05:50:14.073Z,20
2023-03-08T05:55:15.848Z,20
2023-03-08T06:00:17.783Z,20
2023-03-08T06:05:32.230Z,20
2023-03-08T06:10:18.269Z,20
2023-03-08T06:15:20.256Z,20
2023-03-08T06:20:16.124Z,20
2023-03-08T06:25:14.047Z,19.9
2023-03-08T06:30:15.936Z,19.9
2023-03-08T06:35:13.916Z,19.9
2023-03-08T06:40:15.737Z,19.9
2023-03-08T06:45:13.564Z,19.9
2023-03-08T06:50:18.500Z,19.9
2023-03-08T06:55:20.387Z,19.9
2023-03-08T07:00:16.300Z,19.9
2023-03-08T07:05:23.846Z,19.9
2023-03-08T07:10:15.814Z,19.9
2023-03-08T07:15:15.617Z,19.9
2023-03-08T07:20:14.517Z,19.9
2023-03-08T07:25:16.178Z,20
2023-03-08T07:30:16.088Z,20
2023-03-08T07:35:19.893Z,20
2023-03-08T07:40:15.717Z,20
2023-03-08T07:45:14.427Z,20.1
2023-03-08T07:50:18.409Z,20.1
2023-03-08T07:55:18.247Z,20.2
2023-03-08T08:00:18.167Z,20.2
2023-03-08T08:05:14.569Z,20.2
2023-03-08T08:10:16.584Z,20.2
2023-03-08T08:15:16.442Z,20.2
2023-03-08T08:20:24.315Z,20.2
2023-03-08T08:25:20.136Z,20.2
2023-03-08T08:30:16.124Z,20.1
2023-03-08T08:35:16.044Z,20.2
2023-03-08T08:40:15.996Z,20.2
2023-03-08T08:45:16.370Z,20.2
2023-03-08T08:50:20.260Z,20.2
2023-03-08T08:55:16.068Z,20.2
2023-03-08T09:00:15.857Z,20.1
2023-03-08T09:05:24.752Z,20.1
2023-03-08T09:10:13.787Z,20.1
2023-03-08T09:15:21.676Z,20.1
2023-03-08T09:20:17.656Z,20.1
2023-03-08T09:25:20.745Z,20.1
2023-03-08T09:30:17.738Z,20.1
2023-03-08T09:35:23.736Z,20.1
2023-03-08T09:40:19.726Z,20.1
2023-03-08T09:45:19.748Z,20.1
2023-03-08T09:50:16.551Z,20
2023-03-08T09:55:16.980Z,20.1
2023-03-08T10:00:15.964Z,20.1
2023-03-08T10:05:29.602Z,20
2023-03-08T10:10:14.444Z,20
2023-03-08T10:15:14.292Z,20
2023-03-08T10:20:14.151Z,20
2023-03-08T10:25:15.980Z,20
2023-03-08T10:30:13.832Z,20
2023-03-08T10:35:13.710Z,20
2023-03-08T10:40:18.560Z,20
2023-03-08T10:45:19.723Z,20
2023-03-08T10:50:18.520Z,20
2023-03-08T10:55:22.590Z,20
2023-03-08T11:00:16.479Z,20.1
2023-03-08T11:05:16.543Z,20.1
2023-03-08T11:10:14.368Z,20.1
2023-03-08T11:15:15.933Z,20.1
2023-03-08T11:20:19.924Z,20.1
2023-03-08T11:25:21.828Z,20.2
2023-03-08T11:30:13.695Z,20.2
2023-03-08T11:35:16.669Z,20.2
2023-03-08T11:40:14.529Z,20.2
2023-03-08T11:45:20.485Z,20.2
2023-03-08T11:50:20.325Z,20.1
2023-03-08T11:55:18.492Z,20.1
2023-03-08T12:00:14.653Z,20.1
2023-03-08T12:05:19.078Z,20.2
2023-03-08T12:10:16.547Z,20.1
2023-03-08T12:15:14.378Z,20.1
2023-03-08T12:20:22.540Z,20.1
2023-03-08T12:25:24.334Z,20.1
2023-03-08T12:30:22.258Z,20.1
2023-03-08T12:35:16.233Z,20.1
2023-03-08T12:40:16.090Z,20.1
2023-03-08T12:45:18.088Z,20.1
2023-03-08T12:50:30.047Z,20.1
2023-03-08T12:55:24.078Z,20.1
2023-03-08T13:00:21.931Z,20.1
2023-03-08T13:05:16.403Z,20.1
2023-03-08T13:10:18.458Z,20.1
2023-03-08T13:15:14.382Z,20.1
2023-03-08T13:20:20.577Z,20.1
2023-03-08T13:25:31.881Z,20.1
2023-03-08T13:30:18.269Z,20.1
2023-03-08T13:35:14.166Z,20.1
2023-03-08T13:40:17.993Z,20
2023-03-08T13:45:17.998Z,20.1
2023-03-08T13:50:13.965Z,20.1
2023-03-08T13:55:16.570Z,20.1
2023-03-08T14:00:18.873Z,20.1
2023-03-08T14:05:20.315Z,20.1
2023-03-08T14:10:16.297Z,20.1
2023-03-08T14:15:14.705Z,20.1
2023-03-08T14:20:22.355Z,20.1
2023-03-08T14:25:24.879Z,20.1
2023-03-08T14:30:20.225Z,20
2023-03-08T14:35:16.264Z,20.1
2023-03-08T14:40:20.102Z,20.1
2023-03-08T14:45:13.976Z,20.1
2023-03-08T14:50:15.706Z,20.1
2023-03-08T14:55:15.044Z,20
2023-03-08T15:00:17.885Z,20
2023-03-08T15:05:29.011Z,20
2023-03-08T15:10:17.961Z,20.1
2023-03-08T15:15:15.793Z,20.1
2023-03-08T15:20:13.670Z,20.1
2023-03-08T15:25:16.393Z,20.1
2023-03-08T15:30:16.305Z,20.1
2023-03-08T15:35:18.064Z,20.1
2023-03-08T15:40:16.037Z,20.1
2023-03-08T15:45:15.850Z,20.1
2023-03-08T15:50:15.814Z,20.1
2023-03-08T15:55:13.746Z,20.1
2023-03-08T16:00:13.561Z,20.1
2023-03-08T16:05:16.810Z,20.1
2023-03-08T16:10:19.522Z,20.1
2023-03-08T16:15:18.977Z,20.1
2023-03-08T16:20:13.743Z,20.1
2023-03-08T16:25:16.477Z,20.1
2023-03-08T16:30:16.645Z,20
2023-03-08T16:35:16.548Z,20.1
2023-03-08T16:40:24.930Z,20.1
2023-03-08T16:45:19.741Z,20.1
2023-03-08T16:50:18.347Z,20.1
2023-03-08T16:55:18.211Z,20.1
2023-03-08T17:00:18.232Z,20.1
2023-03-08T17:05:16.346Z,20.1
2023-03-08T17:10:18.253Z,20.1
2023-03-08T17:15:16.283Z,20.1
2023-03-08T17:20:18.188Z,20.1
2023-03-08T17:25:18.088Z,20.1
2023-03-08T17:30:16.113Z,20.2
2023-03-08T17:35:21.877Z,20.2
2023-03-08T17:40:19.738Z,20.2
2023-03-08T17:45:17.570Z,20.2
2023-03-08T17:50:20.378Z,20.2
2023-03-08T17:55:14.103Z,20.2
2023-03-08T18:00:19.950Z,20.3
2023-03-08T18:05:16.546Z,20.2
2023-03-08T18:10:14.442Z,20.3
2023-03-08T18:15:18.293Z,20.2
2023-03-08T18:20:16.281Z,20.2
2023-03-08T18:25:20.051Z,20.2
2023-03-08T18:30:15.824Z,20.2
2023-03-08T18:35:17.654Z,20.2
2023-03-08T18:40:26.881Z,20.2
2023-03-08T18:45:17.706Z,20.2
2023-03-08T18:50:22.482Z,20.2
2023-03-08T18:55:14.340Z,20.2
2023-03-08T19:00:20.218Z,20.2
2023-03-08T19:05:15.890Z,20.2
2023-03-08T19:10:15.620Z,20.2
2023-03-08T19:15:20.550Z,20.2
2023-03-08T19:20:18.568Z,20.2
2023-03-08T19:25:16.288Z,20.2
2023-03-08T19:30:14.248Z,20.2
2023-03-08T19:35:24.108Z,20.2
2023-03-08T19:40:24.005Z,20.2
2023-03-08T19:45:13.752Z,20.2
2023-03-08T19:50:17.671Z,20.2
2023-03-08T19:55:22.629Z,20.2
2023-03-08T20:00:16.543Z,20.2
2023-03-08T20:05:20.299Z,20.2
2023-03-08T20:10:40.446Z,20.2
2023-03-08T20:15:16.726Z,20.2
2023-03-08T20:20:20.469Z,20.2
2023-03-08T20:25:26.231Z,20.2
2023-03-08T20:30:14.064Z,20.2
2023-03-08T20:35:17.942Z,20.3
2023-03-08T20:40:19.684Z,20.3
2023-03-08T20:45:16.781Z,20.3
2023-03-08T20:50:13.678Z,20.3
2023-03-08T20:55:26.447Z,20.3
2023-03-08T21:00:24.434Z,20.4
2023-03-08T21:05:28.234Z,20.4
2023-03-08T21:10:16.027Z,20.4
2023-03-08T21:15:20.292Z,20.4
2023-03-08T21:20:18.120Z,20.3
2023-03-08T21:25:17.912Z,20.4
2023-03-08T21:30:19.844Z,20.4
2023-03-08T21:35:19.687Z,20.4
2023-03-08T21:40:16.511Z,20.4
2023-03-08T21:45:16.396Z,20.3
2023-03-08T21:50:18.312Z,20.3
2023-03-08T21:55:18.120Z,20.3
2023-03-08T22:00:13.896Z,20.2
2023-03-08T22:05:19.723Z,20.2
2023-03-08T22:10:16.489Z,20.2
2023-03-08T22:15:16.474Z,20.2
2023-03-08T22:20:16.374Z,20.1
2023-03-08T22:25:20.129Z,20.1
2023-03-08T22:30:18.010Z,20.1
2023-03-08T22:35:15.759Z,20
2023-03-08T22:40:19.556Z,20
2023-03-08T22:45:16.415Z,20
2023-03-08T22:50:14.309Z,20
2023-03-08T22:55:14.221Z,20
2023-03-08T23:00:16.013Z,19.9
2023-03-08T23:05:21.778Z,19.9
2023-03-08T23:10:17.560Z,19.9
2023-03-08T23:15:14.508Z,19.9
2023-03-08T23:20:14.864Z,19.8
2023-03-08T23:25:17.624Z,19.8
2023-03-08T23:30:14.446Z,19.8
2023-03-08T23:35:20.238Z,19.8
2023-03-08T23:40:20.019Z,19.7
2023-03-08T23:45:17.822Z,19.7
2023-03-08T23:50:15.601Z,19.7
2023-03-08T23:55:14.365Z,19.7
